Terminal Aerodrome Forecast
Issued by NWS Louisville, KY

Home | Current Version | Previous Version | Text Only | Print | Product List | Glossary On
Versions: 1 2 3 4 5 6 7 8 9 10 11 12 13 14 15 16
000
FTUS43 KLMK 201100
TAFLEX
TAF
KLEX 201130Z 2012/2112 VRB03KT 2SM BR VCSH OVC004
     FM201400 VRB03KT 6SM BR VCSH OVC007
     FM201600 VRB03KT P6SM VCSH BKN015
     FM201800 VRB04KT P6SM VCSH BKN025
     FM201900 VRB04KT P6SM VCSH SCT025 BKN040
     FM210800 VRB04KT 5SM BR SCT015 BKN025=

USA.gov is the U.S. government's official web portal to all federal, state and local government web resources and services.